sensor_id;sensor_type;location;lat;lon;timestamp;P1;durP1;ratioP1;P2;durP2;ratioP2
34565;SDS011;20803;42.676;26.348;2023-12-20T00:00:37;13.43;;;7.93;;
34565;SDS011;20803;42.676;26.348;2023-12-20T00:03:02;13.50;;;8.00;;
34565;SDS011;20803;42.676;26.348;2023-12-20T00:05:29;12.63;;;7.97;;
34565;SDS011;20803;42.676;26.348;2023-12-20T00:07:57;9.37;;;6.50;;
34565;SDS011;20803;42.676;26.348;2023-12-20T00:10:22;9.47;;;6.70;;
34565;SDS011;20803;42.676;26.348;2023-12-20T00:12:48;10.37;;;7.07;;
34565;SDS011;20803;42.676;26.348;2023-12-20T00:15:13;11.83;;;8.53;;
34565;SDS011;20803;42.676;26.348;2023-12-20T00:17:39;11.73;;;7.50;;
34565;SDS011;20803;42.676;26.348;2023-12-20T00:20:04;12.53;;;7.90;;
34565;SDS011;20803;42.676;26.348;2023-12-20T00:22:31;14.67;;;9.70;;
34565;SDS011;20803;42.676;26.348;2023-12-20T00:24:57;16.53;;;10.80;;
34565;SDS011;20803;42.676;26.348;2023-12-20T00:27:22;20.00;;;11.70;;
34565;SDS011;20803;42.676;26.348;2023-12-20T00:29:48;15.30;;;9.97;;
34565;SDS011;20803;42.676;26.348;2023-12-20T00:32:15;13.80;;;9.07;;
34565;SDS011;20803;42.676;26.348;2023-12-20T00:34:41;12.60;;;8.27;;
34565;SDS011;20803;42.676;26.348;2023-12-20T00:37:07;11.33;;;8.10;;
34565;SDS011;20803;42.676;26.348;2023-12-20T00:39:33;13.33;;;8.40;;
34565;SDS011;20803;42.676;26.348;2023-12-20T00:41:58;11.37;;;6.97;;
34565;SDS011;20803;42.676;26.348;2023-12-20T00:44:24;9.10;;;6.17;;
34565;SDS011;20803;42.676;26.348;2023-12-20T00:46:49;8.23;;;5.20;;
34565;SDS011;20803;42.676;26.348;2023-12-20T00:49:15;7.50;;;4.37;;
34565;SDS011;20803;42.676;26.348;2023-12-20T00:51:40;6.57;;;4.13;;
34565;SDS011;20803;42.676;26.348;2023-12-20T00:54:06;7.40;;;4.00;;
34565;SDS011;20803;42.676;26.348;2023-12-20T00:56:31;5.13;;;3.83;;
34565;SDS011;20803;42.676;26.348;2023-12-20T00:58:57;5.33;;;3.67;;
34565;SDS011;20803;42.676;26.348;2023-12-20T01:01:22;7.20;;;4.43;;
34565;SDS011;20803;42.676;26.348;2023-12-20T01:03:47;7.10;;;4.60;;
34565;SDS011;20803;42.676;26.348;2023-12-20T01:06:16;7.23;;;4.70;;
34565;SDS011;20803;42.676;26.348;2023-12-20T01:08:41;7.37;;;4.97;;
34565;SDS011;20803;42.676;26.348;2023-12-20T01:11:07;6.17;;;4.30;;
34565;SDS011;20803;42.676;26.348;2023-12-20T01:13:33;7.77;;;6.20;;
34565;SDS011;20803;42.676;26.348;2023-12-20T01:15:58;17.00;;;9.40;;
34565;SDS011;20803;42.676;26.348;2023-12-20T01:18:24;13.23;;;8.60;;
34565;SDS011;20803;42.676;26.348;2023-12-20T01:20:49;11.40;;;6.93;;
34565;SDS011;20803;42.676;26.348;2023-12-20T01:23:15;13.47;;;7.27;;
34565;SDS011;20803;42.676;26.348;2023-12-20T01:25:40;13.63;;;9.23;;
34565;SDS011;20803;42.676;26.348;2023-12-20T01:28:06;14.07;;;8.77;;
34565;SDS011;20803;42.676;26.348;2023-12-20T01:30:31;12.70;;;8.47;;
34565;SDS011;20803;42.676;26.348;2023-12-20T01:32:58;15.87;;;9.80;;
34565;SDS011;20803;42.676;26.348;2023-12-20T01:35:24;14.60;;;9.27;;
34565;SDS011;20803;42.676;26.348;2023-12-20T01:37:50;14.60;;;9.97;;
34565;SDS011;20803;42.676;26.348;2023-12-20T01:40:15;16.57;;;10.17;;
34565;SDS011;20803;42.676;26.348;2023-12-20T01:42:41;13.77;;;10.60;;
34565;SDS011;20803;42.676;26.348;2023-12-20T01:45:07;14.77;;;10.33;;
34565;SDS011;20803;42.676;26.348;2023-12-20T01:47:33;14.07;;;9.43;;
34565;SDS011;20803;42.676;26.348;2023-12-20T01:49:59;15.67;;;9.30;;
34565;SDS011;20803;42.676;26.348;2023-12-20T01:52:25;16.13;;;8.90;;
34565;SDS011;20803;42.676;26.348;2023-12-20T01:54:51;13.47;;;8.13;;
34565;SDS011;20803;42.676;26.348;2023-12-20T01:57:17;11.87;;;7.23;;
34565;SDS011;20803;42.676;26.348;2023-12-20T01:59:42;8.40;;;5.43;;
34565;SDS011;20803;42.676;26.348;2023-12-20T02:02:09;9.53;;;5.40;;
34565;SDS011;20803;42.676;26.348;2023-12-20T02:04:37;8.27;;;5.47;;
34565;SDS011;20803;42.676;26.348;2023-12-20T02:07:03;8.17;;;5.33;;
34565;SDS011;20803;42.676;26.348;2023-12-20T02:09:29;7.73;;;5.00;;
34565;SDS011;20803;42.676;26.348;2023-12-20T02:11:55;6.10;;;4.63;;
34565;SDS011;20803;42.676;26.348;2023-12-20T02:14:20;8.27;;;4.90;;
34565;SDS011;20803;42.676;26.348;2023-12-20T02:16:46;7.53;;;4.80;;
34565;SDS011;20803;42.676;26.348;2023-12-20T02:19:14;10.03;;;5.70;;
34565;SDS011;20803;42.676;26.348;2023-12-20T02:21:40;7.03;;;4.77;;
34565;SDS011;20803;42.676;26.348;2023-12-20T02:24:06;10.17;;;5.93;;
34565;SDS011;20803;42.676;26.348;2023-12-20T02:26:32;9.00;;;6.43;;
34565;SDS011;20803;42.676;26.348;2023-12-20T02:28:59;9.17;;;6.30;;
34565;SDS011;20803;42.676;26.348;2023-12-20T02:31:25;10.93;;;6.53;;
34565;SDS011;20803;42.676;26.348;2023-12-20T02:33:50;9.93;;;6.50;;
34565;SDS011;20803;42.676;26.348;2023-12-20T02:36:16;8.37;;;5.90;;
34565;SDS011;20803;42.676;26.348;2023-12-20T02:38:41;10.57;;;6.90;;
34565;SDS011;20803;42.676;26.348;2023-12-20T02:41:07;12.43;;;7.33;;
34565;SDS011;20803;42.676;26.348;2023-12-20T02:43:32;10.83;;;7.53;;
34565;SDS011;20803;42.676;26.348;2023-12-20T02:45:58;11.27;;;7.77;;
34565;SDS011;20803;42.676;26.348;2023-12-20T02:48:23;13.60;;;7.37;;
34565;SDS011;20803;42.676;26.348;2023-12-20T02:50:49;16.83;;;8.40;;
34565;SDS011;20803;42.676;26.348;2023-12-20T02:53:14;12.73;;;7.80;;
34565;SDS011;20803;42.676;26.348;2023-12-20T02:55:40;12.63;;;8.80;;
34565;SDS011;20803;42.676;26.348;2023-12-20T02:58:05;13.83;;;7.87;;
34565;SDS011;20803;42.676;26.348;2023-12-20T03:00:31;11.33;;;8.07;;
34565;SDS011;20803;42.676;26.348;2023-12-20T03:02:56;14.47;;;8.73;;
34565;SDS011;20803;42.676;26.348;2023-12-20T03:05:22;15.37;;;8.67;;
34565;SDS011;20803;42.676;26.348;2023-12-20T03:07:47;12.93;;;8.67;;
34565;SDS011;20803;42.676;26.348;2023-12-20T03:10:13;14.03;;;9.53;;
34565;SDS011;20803;42.676;26.348;2023-12-20T03:12:38;14.27;;;9.37;;
34565;SDS011;20803;42.676;26.348;2023-12-20T03:15:04;13.77;;;8.47;;
34565;SDS011;20803;42.676;26.348;2023-12-20T03:17:29;12.63;;;8.57;;
34565;SDS011;20803;42.676;26.348;2023-12-20T03:19:55;12.63;;;8.07;;
34565;SDS011;20803;42.676;26.348;2023-12-20T03:22:20;17.37;;;9.47;;
34565;SDS011;20803;42.676;26.348;2023-12-20T03:24:46;12.47;;;7.43;;
34565;SDS011;20803;42.676;26.348;2023-12-20T03:27:11;11.73;;;8.30;;
34565;SDS011;20803;42.676;26.348;2023-12-20T03:29:37;11.63;;;7.40;;
34565;SDS011;20803;42.676;26.348;2023-12-20T03:32:02;10.43;;;7.30;;
34565;SDS011;20803;42.676;26.348;2023-12-20T03:34:28;12.93;;;7.83;;
34565;SDS011;20803;42.676;26.348;2023-12-20T03:36:54;13.63;;;7.70;;
34565;SDS011;20803;42.676;26.348;2023-12-20T03:39:19;11.30;;;7.47;;
34565;SDS011;20803;42.676;26.348;2023-12-20T03:41:45;12.10;;;7.80;;
34565;SDS011;20803;42.676;26.348;2023-12-20T03:44:10;12.30;;;7.73;;
34565;SDS011;20803;42.676;26.348;2023-12-20T03:46:36;14.43;;;7.83;;
34565;SDS011;20803;42.676;26.348;2023-12-20T03:49:01;13.20;;;8.67;;
34565;SDS011;20803;42.676;26.348;2023-12-20T03:51:27;12.60;;;8.60;;
34565;SDS011;20803;42.676;26.348;2023-12-20T03:53:52;17.30;;;9.10;;
34565;SDS011;20803;42.676;26.348;2023-12-20T03:56:18;15.83;;;10.10;;
34565;SDS011;20803;42.676;26.348;2023-12-20T03:58:43;15.97;;;11.27;;
34565;SDS011;20803;42.676;26.348;2023-12-20T04:01:09;12.33;;;9.03;;
34565;SDS011;20803;42.676;26.348;2023-12-20T04:03:38;12.13;;;8.57;;
34565;SDS011;20803;42.676;26.348;2023-12-20T04:06:05;10.63;;;8.00;;
34565;SDS011;20803;42.676;26.348;2023-12-20T04:08:30;10.20;;;7.30;;
34565;SDS011;20803;42.676;26.348;2023-12-20T04:10:56;10.23;;;7.13;;
34565;SDS011;20803;42.676;26.348;2023-12-20T04:13:21;12.33;;;7.33;;
34565;SDS011;20803;42.676;26.348;2023-12-20T04:15:47;9.33;;;5.90;;
34565;SDS011;20803;42.676;26.348;2023-12-20T04:18:15;8.57;;;5.57;;
34565;SDS011;20803;42.676;26.348;2023-12-20T04:20:40;7.63;;;5.27;;
34565;SDS011;20803;42.676;26.348;2023-12-20T04:23:06;8.43;;;4.83;;
34565;SDS011;20803;42.676;26.348;2023-12-20T04:25:31;8.20;;;5.20;;
34565;SDS011;20803;42.676;26.348;2023-12-20T04:27:57;6.17;;;4.40;;
34565;SDS011;20803;42.676;26.348;2023-12-20T04:30:22;7.50;;;5.17;;
34565;SDS011;20803;42.676;26.348;2023-12-20T04:32:48;8.60;;;5.00;;
34565;SDS011;20803;42.676;26.348;2023-12-20T04:35:13;7.17;;;4.90;;
34565;SDS011;20803;42.676;26.348;2023-12-20T04:37:39;6.40;;;4.70;;
34565;SDS011;20803;42.676;26.348;2023-12-20T04:40:04;8.60;;;5.20;;
34565;SDS011;20803;42.676;26.348;2023-12-20T04:42:30;9.60;;;6.90;;
34565;SDS011;20803;42.676;26.348;2023-12-20T04:44:56;9.33;;;5.90;;
34565;SDS011;20803;42.676;26.348;2023-12-20T04:47:21;8.43;;;6.17;;
34565;SDS011;20803;42.676;26.348;2023-12-20T04:49:47;13.37;;;8.30;;
34565;SDS011;20803;42.676;26.348;2023-12-20T04:52:13;11.83;;;7.50;;
34565;SDS011;20803;42.676;26.348;2023-12-20T04:54:39;12.70;;;6.80;;
34565;SDS011;20803;42.676;26.348;2023-12-20T04:57:05;12.10;;;7.10;;
34565;SDS011;20803;42.676;26.348;2023-12-20T04:59:30;12.30;;;7.77;;
34565;SDS011;20803;42.676;26.348;2023-12-20T05:01:56;13.90;;;7.70;;
34565;SDS011;20803;42.676;26.348;2023-12-20T05:04:22;11.80;;;7.43;;
34565;SDS011;20803;42.676;26.348;2023-12-20T05:06:48;10.23;;;6.60;;
34565;SDS011;20803;42.676;26.348;2023-12-20T05:09:15;15.20;;;6.83;;
34565;SDS011;20803;42.676;26.348;2023-12-20T05:11:40;8.07;;;5.70;;
34565;SDS011;20803;42.676;26.348;2023-12-20T05:14:06;12.83;;;6.33;;
34565;SDS011;20803;42.676;26.348;2023-12-20T05:16:32;13.00;;;7.63;;
34565;SDS011;20803;42.676;26.348;2023-12-20T05:18:57;11.90;;;8.40;;
34565;SDS011;20803;42.676;26.348;2023-12-20T05:21:25;17.00;;;9.13;;
34565;SDS011;20803;42.676;26.348;2023-12-20T05:23:51;18.03;;;9.33;;
34565;SDS011;20803;42.676;26.348;2023-12-20T05:26:17;19.67;;;10.43;;
34565;SDS011;20803;42.676;26.348;2023-12-20T05:28:42;16.17;;;9.73;;
34565;SDS011;20803;42.676;26.348;2023-12-20T05:31:07;13.30;;;9.00;;
34565;SDS011;20803;42.676;26.348;2023-12-20T05:33:34;14.30;;;9.10;;
34565;SDS011;20803;42.676;26.348;2023-12-20T05:35:59;20.53;;;12.53;;
34565;SDS011;20803;42.676;26.348;2023-12-20T05:38:25;19.17;;;11.40;;
34565;SDS011;20803;42.676;26.348;2023-12-20T05:40:51;18.37;;;12.27;;
34565;SDS011;20803;42.676;26.348;2023-12-20T05:43:16;18.23;;;10.73;;
34565;SDS011;20803;42.676;26.348;2023-12-20T05:45:42;16.20;;;9.97;;
34565;SDS011;20803;42.676;26.348;2023-12-20T05:48:07;15.03;;;7.87;;
34565;SDS011;20803;42.676;26.348;2023-12-20T05:50:33;14.17;;;9.57;;
34565;SDS011;20803;42.676;26.348;2023-12-20T05:52:59;13.10;;;8.60;;
34565;SDS011;20803;42.676;26.348;2023-12-20T05:55:25;14.03;;;9.53;;
34565;SDS011;20803;42.676;26.348;2023-12-20T05:57:50;15.33;;;8.80;;
34565;SDS011;20803;42.676;26.348;2023-12-20T06:00:16;14.03;;;9.13;;
34565;SDS011;20803;42.676;26.348;2023-12-20T06:02:42;13.83;;;9.03;;
34565;SDS011;20803;42.676;26.348;2023-12-20T06:05:08;13.80;;;9.50;;
34565;SDS011;20803;42.676;26.348;2023-12-20T06:07:33;15.60;;;10.00;;
34565;SDS011;20803;42.676;26.348;2023-12-20T06:09:59;19.33;;;11.00;;
34565;SDS011;20803;42.676;26.348;2023-12-20T06:12:24;24.40;;;13.97;;
34565;SDS011;20803;42.676;26.348;2023-12-20T06:14:51;25.83;;;13.83;;
34565;SDS011;20803;42.676;26.348;2023-12-20T06:17:17;20.93;;;13.50;;
34565;SDS011;20803;42.676;26.348;2023-12-20T06:19:42;27.00;;;15.40;;
34565;SDS011;20803;42.676;26.348;2023-12-20T06:22:10;27.50;;;16.57;;
34565;SDS011;20803;42.676;26.348;2023-12-20T06:24:35;24.93;;;15.70;;
34565;SDS011;20803;42.676;26.348;2023-12-20T06:27:01;29.80;;;18.37;;
34565;SDS011;20803;42.676;26.348;2023-12-20T06:29:27;31.47;;;19.03;;
34565;SDS011;20803;42.676;26.348;2023-12-20T06:31:53;34.10;;;18.83;;
34565;SDS011;20803;42.676;26.348;2023-12-20T06:34:18;42.73;;;19.67;;
34565;SDS011;20803;42.676;26.348;2023-12-20T06:36:44;40.13;;;22.87;;
34565;SDS011;20803;42.676;26.348;2023-12-20T06:39:09;40.60;;;26.27;;
34565;SDS011;20803;42.676;26.348;2023-12-20T06:41:37;45.27;;;29.13;;
34565;SDS011;20803;42.676;26.348;2023-12-20T06:44:03;40.63;;;25.83;;
34565;SDS011;20803;42.676;26.348;2023-12-20T06:46:29;37.50;;;25.27;;
34565;SDS011;20803;42.676;26.348;2023-12-20T06:48:54;35.37;;;24.03;;
34565;SDS011;20803;42.676;26.348;2023-12-20T06:51:20;38.67;;;23.07;;
34565;SDS011;20803;42.676;26.348;2023-12-20T06:53:45;38.97;;;23.77;;
34565;SDS011;20803;42.676;26.348;2023-12-20T06:56:11;31.07;;;23.17;;
34565;SDS011;20803;42.676;26.348;2023-12-20T06:58:41;40.27;;;23.87;;
34565;SDS011;20803;42.676;26.348;2023-12-20T07:01:10;36.03;;;21.93;;
34565;SDS011;20803;42.676;26.348;2023-12-20T07:03:37;34.60;;;21.40;;
34565;SDS011;20803;42.676;26.348;2023-12-20T07:06:02;34.90;;;22.40;;
34565;SDS011;20803;42.676;26.348;2023-12-20T07:08:28;34.33;;;22.30;;
34565;SDS011;20803;42.676;26.348;2023-12-20T07:10:54;39.57;;;23.33;;
34565;SDS011;20803;42.676;26.348;2023-12-20T07:13:20;31.37;;;20.40;;
34565;SDS011;20803;42.676;26.348;2023-12-20T07:15:47;36.10;;;24.53;;
34565;SDS011;20803;42.676;26.348;2023-12-20T07:18:12;51.43;;;32.30;;
34565;SDS011;20803;42.676;26.348;2023-12-20T07:20:38;36.73;;;23.47;;
34565;SDS011;20803;42.676;26.348;2023-12-20T07:23:04;38.60;;;22.63;;
34565;SDS011;20803;42.676;26.348;2023-12-20T07:25:29;32.70;;;20.90;;
34565;SDS011;20803;42.676;26.348;2023-12-20T07:27:57;25.33;;;18.80;;
34565;SDS011;20803;42.676;26.348;2023-12-20T07:30:23;27.97;;;19.13;;
34565;SDS011;20803;42.676;26.348;2023-12-20T07:32:49;31.13;;;19.77;;
34565;SDS011;20803;42.676;26.348;2023-12-20T07:35:15;27.10;;;19.33;;
34565;SDS011;20803;42.676;26.348;2023-12-20T07:37:41;30.33;;;18.67;;
34565;SDS011;20803;42.676;26.348;2023-12-20T07:40:07;30.60;;;19.27;;
34565;SDS011;20803;42.676;26.348;2023-12-20T07:42:33;27.33;;;17.57;;
34565;SDS011;20803;42.676;26.348;2023-12-20T07:45:01;23.77;;;18.57;;
34565;SDS011;20803;42.676;26.348;2023-12-20T07:47:26;21.27;;;15.37;;
34565;SDS011;20803;42.676;26.348;2023-12-20T07:49:52;21.47;;;15.73;;
34565;SDS011;20803;42.676;26.348;2023-12-20T07:52:18;18.77;;;14.70;;
34565;SDS011;20803;42.676;26.348;2023-12-20T07:54:44;20.17;;;13.53;;
34565;SDS011;20803;42.676;26.348;2023-12-20T07:57:10;18.97;;;13.40;;
34565;SDS011;20803;42.676;26.348;2023-12-20T07:59:36;20.33;;;13.73;;
34565;SDS011;20803;42.676;26.348;2023-12-20T08:02:02;21.63;;;13.40;;
34565;SDS011;20803;42.676;26.348;2023-12-20T08:04:27;20.30;;;13.70;;
34565;SDS011;20803;42.676;26.348;2023-12-20T08:06:53;17.43;;;13.43;;
34565;SDS011;20803;42.676;26.348;2023-12-20T08:09:18;23.07;;;15.77;;
34565;SDS011;20803;42.676;26.348;2023-12-20T08:11:47;30.73;;;21.80;;
34565;SDS011;20803;42.676;26.348;2023-12-20T08:14:13;56.40;;;34.57;;
34565;SDS011;20803;42.676;26.348;2023-12-20T08:16:39;38.73;;;27.40;;
34565;SDS011;20803;42.676;26.348;2023-12-20T08:19:04;34.33;;;26.17;;
34565;SDS011;20803;42.676;26.348;2023-12-20T08:21:30;43.30;;;27.57;;
34565;SDS011;20803;42.676;26.348;2023-12-20T08:23:55;38.27;;;27.63;;
34565;SDS011;20803;42.676;26.348;2023-12-20T08:26:21;48.50;;;30.47;;
34565;SDS011;20803;42.676;26.348;2023-12-20T08:28:49;40.90;;;27.70;;
34565;SDS011;20803;42.676;26.348;2023-12-20T08:31:15;40.70;;;27.83;;
34565;SDS011;20803;42.676;26.348;2023-12-20T08:33:45;37.20;;;26.10;;
34565;SDS011;20803;42.676;26.348;2023-12-20T08:36:11;40.27;;;26.57;;
34565;SDS011;20803;42.676;26.348;2023-12-20T08:38:37;39.27;;;26.73;;
34565;SDS011;20803;42.676;26.348;2023-12-20T08:41:03;39.93;;;26.70;;
34565;SDS011;20803;42.676;26.348;2023-12-20T08:43:39;41.83;;;25.23;;
34565;SDS011;20803;42.676;26.348;2023-12-20T08:46:07;40.97;;;23.47;;
34565;SDS011;20803;42.676;26.348;2023-12-20T08:48:34;31.77;;;23.37;;
34565;SDS011;20803;42.676;26.348;2023-12-20T08:51:00;35.67;;;23.27;;
34565;SDS011;20803;42.676;26.348;2023-12-20T08:53:26;29.23;;;18.93;;
34565;SDS011;20803;42.676;26.348;2023-12-20T08:55:51;28.17;;;20.23;;
34565;SDS011;20803;42.676;26.348;2023-12-20T08:58:17;26.80;;;21.43;;
34565;SDS011;20803;42.676;26.348;2023-12-20T09:00:43;26.03;;;20.80;;
34565;SDS011;20803;42.676;26.348;2023-12-20T09:03:08;32.80;;;20.80;;
34565;SDS011;20803;42.676;26.348;2023-12-20T09:05:34;25.23;;;18.37;;
34565;SDS011;20803;42.676;26.348;2023-12-20T09:07:59;26.40;;;17.80;;
34565;SDS011;20803;42.676;26.348;2023-12-20T09:10:25;23.50;;;16.97;;
34565;SDS011;20803;42.676;26.348;2023-12-20T09:12:51;24.03;;;17.40;;
34565;SDS011;20803;42.676;26.348;2023-12-20T09:15:25;25.97;;;16.50;;
34565;SDS011;20803;42.676;26.348;2023-12-20T09:17:51;28.13;;;15.73;;
34565;SDS011;20803;42.676;26.348;2023-12-20T09:20:17;19.47;;;14.40;;
34565;SDS011;20803;42.676;26.348;2023-12-20T09:22:43;24.07;;;17.37;;
34565;SDS011;20803;42.676;26.348;2023-12-20T09:25:09;23.40;;;15.57;;
34565;SDS011;20803;42.676;26.348;2023-12-20T09:27:36;26.83;;;16.53;;
34565;SDS011;20803;42.676;26.348;2023-12-20T09:30:02;15.00;;;11.07;;
34565;SDS011;20803;42.676;26.348;2023-12-20T09:32:29;13.60;;;10.23;;
34565;SDS011;20803;42.676;26.348;2023-12-20T09:34:54;15.70;;;10.47;;
34565;SDS011;20803;42.676;26.348;2023-12-20T09:37:20;21.27;;;13.97;;
34565;SDS011;20803;42.676;26.348;2023-12-20T09:39:45;17.50;;;12.33;;
34565;SDS011;20803;42.676;26.348;2023-12-20T09:42:11;16.03;;;12.07;;
34565;SDS011;20803;42.676;26.348;2023-12-20T09:44:42;16.80;;;11.00;;
34565;SDS011;20803;42.676;26.348;2023-12-20T09:47:09;15.47;;;11.73;;
34565;SDS011;20803;42.676;26.348;2023-12-20T09:49:35;14.63;;;11.43;;
34565;SDS011;20803;42.676;26.348;2023-12-20T09:52:01;20.23;;;15.37;;
34565;SDS011;20803;42.676;26.348;2023-12-20T09:54:33;29.70;;;21.47;;
34565;SDS011;20803;42.676;26.348;2023-12-20T09:56:58;29.63;;;18.27;;
34565;SDS011;20803;42.676;26.348;2023-12-20T09:59:24;34.17;;;18.93;;
34565;SDS011;20803;42.676;26.348;2023-12-20T10:01:49;31.07;;;19.03;;
34565;SDS011;20803;42.676;26.348;2023-12-20T10:04:16;25.97;;;16.90;;
34565;SDS011;20803;42.676;26.348;2023-12-20T10:06:42;22.07;;;15.80;;
34565;SDS011;20803;42.676;26.348;2023-12-20T10:09:11;22.60;;;13.73;;
34565;SDS011;20803;42.676;26.348;2023-12-20T10:11:37;18.30;;;13.50;;
34565;SDS011;20803;42.676;26.348;2023-12-20T10:14:03;18.10;;;12.07;;
34565;SDS011;20803;42.676;26.348;2023-12-20T10:16:30;19.80;;;12.33;;
34565;SDS011;20803;42.676;26.348;2023-12-20T10:18:56;16.83;;;12.40;;
34565;SDS011;20803;42.676;26.348;2023-12-20T10:21:22;13.17;;;10.70;;
34565;SDS011;20803;42.676;26.348;2023-12-20T10:23:48;16.40;;;10.77;;
34565;SDS011;20803;42.676;26.348;2023-12-20T10:26:22;12.43;;;10.23;;
34565;SDS011;20803;42.676;26.348;2023-12-20T10:28:54;11.77;;;9.10;;
34565;SDS011;20803;42.676;26.348;2023-12-20T10:31:28;19.40;;;12.23;;
34565;SDS011;20803;42.676;26.348;2023-12-20T10:33:56;10.70;;;8.40;;
34565;SDS011;20803;42.676;26.348;2023-12-20T10:36:23;13.63;;;8.87;;
34565;SDS011;20803;42.676;26.348;2023-12-20T10:38:49;18.57;;;12.27;;
34565;SDS011;20803;42.676;26.348;2023-12-20T10:41:16;20.00;;;12.63;;
34565;SDS011;20803;42.676;26.348;2023-12-20T10:43:43;18.93;;;13.40;;
34565;SDS011;20803;42.676;26.348;2023-12-20T10:46:11;14.57;;;12.37;;
34565;SDS011;20803;42.676;26.348;2023-12-20T10:48:37;17.80;;;11.30;;
34565;SDS011;20803;42.676;26.348;2023-12-20T10:51:04;12.07;;;9.77;;
34565;SDS011;20803;42.676;26.348;2023-12-20T10:53:31;11.43;;;9.17;;
34565;SDS011;20803;42.676;26.348;2023-12-20T10:55:59;19.10;;;12.13;;
34565;SDS011;20803;42.676;26.348;2023-12-20T10:58:28;11.93;;;8.70;;
34565;SDS011;20803;42.676;26.348;2023-12-20T11:01:00;21.37;;;12.13;;
34565;SDS011;20803;42.676;26.348;2023-12-20T11:03:27;18.60;;;12.17;;
34565;SDS011;20803;42.676;26.348;2023-12-20T11:08:32;15.13;;;10.17;;
34565;SDS011;20803;42.676;26.348;2023-12-20T11:11:13;17.57;;;9.07;;
34565;SDS011;20803;42.676;26.348;2023-12-20T11:16:22;17.17;;;9.20;;
34565;SDS011;20803;42.676;26.348;2023-12-20T11:18:48;18.53;;;8.90;;
34565;SDS011;20803;42.676;26.348;2023-12-20T11:21:15;12.37;;;8.97;;
34565;SDS011;20803;42.676;26.348;2023-12-20T11:23:44;12.87;;;9.13;;
34565;SDS011;20803;42.676;26.348;2023-12-20T11:26:10;11.97;;;6.90;;
34565;SDS011;20803;42.676;26.348;2023-12-20T11:28:35;9.43;;;5.77;;
34565;SDS011;20803;42.676;26.348;2023-12-20T11:31:01;10.73;;;6.23;;
34565;SDS011;20803;42.676;26.348;2023-12-20T11:33:37;8.50;;;6.30;;
34565;SDS011;20803;42.676;26.348;2023-12-20T11:36:03;9.03;;;6.17;;
34565;SDS011;20803;42.676;26.348;2023-12-20T11:38:37;9.53;;;5.70;;
34565;SDS011;20803;42.676;26.348;2023-12-20T11:41:05;7.83;;;5.70;;
34565;SDS011;20803;42.676;26.348;2023-12-20T11:43:37;9.97;;;5.77;;
34565;SDS011;20803;42.676;26.348;2023-12-20T11:46:08;5.53;;;4.77;;
34565;SDS011;20803;42.676;26.348;2023-12-20T11:48:39;6.70;;;5.03;;
34565;SDS011;20803;42.676;26.348;2023-12-20T11:51:09;9.57;;;5.80;;
34565;SDS011;20803;42.676;26.348;2023-12-20T11:53:37;9.33;;;6.87;;
34565;SDS011;20803;42.676;26.348;2023-12-20T11:56:05;9.33;;;6.20;;
34565;SDS011;20803;42.676;26.348;2023-12-20T11:58:31;10.90;;;7.73;;
34565;SDS011;20803;42.676;26.348;2023-12-20T12:00:57;5.53;;;4.80;;
34565;SDS011;20803;42.676;26.348;2023-12-20T12:03:23;6.53;;;5.40;;
34565;SDS011;20803;42.676;26.348;2023-12-20T12:05:49;7.80;;;5.63;;
34565;SDS011;20803;42.676;26.348;2023-12-20T12:08:15;5.80;;;4.90;;
34565;SDS011;20803;42.676;26.348;2023-12-20T12:10:42;10.50;;;5.80;;
34565;SDS011;20803;42.676;26.348;2023-12-20T12:13:08;7.97;;;5.27;;
34565;SDS011;20803;42.676;26.348;2023-12-20T12:15:35;8.33;;;5.43;;
34565;SDS011;20803;42.676;26.348;2023-12-20T12:18:01;8.13;;;5.57;;
34565;SDS011;20803;42.676;26.348;2023-12-20T12:20:27;7.53;;;5.90;;
34565;SDS011;20803;42.676;26.348;2023-12-20T12:22:59;11.33;;;7.20;;
34565;SDS011;20803;42.676;26.348;2023-12-20T12:25:25;7.57;;;6.67;;
34565;SDS011;20803;42.676;26.348;2023-12-20T12:27:52;9.27;;;6.93;;
34565;SDS011;20803;42.676;26.348;2023-12-20T12:30:17;11.83;;;8.87;;
34565;SDS011;20803;42.676;26.348;2023-12-20T12:32:46;13.27;;;7.53;;
34565;SDS011;20803;42.676;26.348;2023-12-20T12:35:11;12.20;;;8.50;;
34565;SDS011;20803;42.676;26.348;2023-12-20T12:37:38;14.33;;;9.57;;
34565;SDS011;20803;42.676;26.348;2023-12-20T12:40:09;14.40;;;9.77;;
34565;SDS011;20803;42.676;26.348;2023-12-20T12:42:36;7.53;;;6.60;;
34565;SDS011;20803;42.676;26.348;2023-12-20T12:45:06;9.70;;;7.77;;
34565;SDS011;20803;42.676;26.348;2023-12-20T12:47:32;14.50;;;9.20;;
34565;SDS011;20803;42.676;26.348;2023-12-20T12:49:58;17.33;;;12.17;;
34565;SDS011;20803;42.676;26.348;2023-12-20T12:52:24;14.10;;;10.67;;
34565;SDS011;20803;42.676;26.348;2023-12-20T12:54:51;12.77;;;9.83;;
34565;SDS011;20803;42.676;26.348;2023-12-20T12:57:17;14.67;;;9.97;;
34565;SDS011;20803;42.676;26.348;2023-12-20T12:59:44;16.80;;;11.67;;
34565;SDS011;20803;42.676;26.348;2023-12-20T13:02:11;9.80;;;6.73;;
34565;SDS011;20803;42.676;26.348;2023-12-20T13:04:40;11.53;;;7.73;;
34565;SDS011;20803;42.676;26.348;2023-12-20T13:07:07;21.63;;;14.23;;
34565;SDS011;20803;42.676;26.348;2023-12-20T13:09:40;15.90;;;9.37;;
34565;SDS011;20803;42.676;26.348;2023-12-20T13:12:06;17.60;;;11.17;;
34565;SDS011;20803;42.676;26.348;2023-12-20T13:14:33;9.23;;;6.80;;
34565;SDS011;20803;42.676;26.348;2023-12-20T13:17:00;8.70;;;5.83;;
34565;SDS011;20803;42.676;26.348;2023-12-20T13:19:26;11.37;;;8.47;;
34565;SDS011;20803;42.676;26.348;2023-12-20T13:21:54;11.30;;;7.73;;
34565;SDS011;20803;42.676;26.348;2023-12-20T13:24:19;10.90;;;6.90;;
34565;SDS011;20803;42.676;26.348;2023-12-20T13:26:45;12.43;;;7.57;;
34565;SDS011;20803;42.676;26.348;2023-12-20T13:29:10;10.33;;;7.57;;
34565;SDS011;20803;42.676;26.348;2023-12-20T13:31:37;9.50;;;7.63;;
34565;SDS011;20803;42.676;26.348;2023-12-20T13:34:02;12.47;;;8.13;;
34565;SDS011;20803;42.676;26.348;2023-12-20T13:36:28;11.30;;;7.63;;
34565;SDS011;20803;42.676;26.348;2023-12-20T13:38:53;15.83;;;8.83;;
34565;SDS011;20803;42.676;26.348;2023-12-20T13:41:19;17.03;;;11.43;;
34565;SDS011;20803;42.676;26.348;2023-12-20T13:43:45;23.50;;;11.83;;
34565;SDS011;20803;42.676;26.348;2023-12-20T13:46:10;15.53;;;10.83;;
34565;SDS011;20803;42.676;26.348;2023-12-20T13:48:36;15.50;;;10.47;;
34565;SDS011;20803;42.676;26.348;2023-12-20T13:51:01;14.53;;;8.53;;
34565;SDS011;20803;42.676;26.348;2023-12-20T13:53:28;8.20;;;6.20;;
34565;SDS011;20803;42.676;26.348;2023-12-20T13:55:53;11.00;;;6.30;;
34565;SDS011;20803;42.676;26.348;2023-12-20T13:58:19;12.47;;;6.50;;
34565;SDS011;20803;42.676;26.348;2023-12-20T14:00:45;11.00;;;7.03;;
34565;SDS011;20803;42.676;26.348;2023-12-20T14:03:10;12.73;;;8.60;;
34565;SDS011;20803;42.676;26.348;2023-12-20T14:05:36;11.53;;;7.23;;
34565;SDS011;20803;42.676;26.348;2023-12-20T14:08:02;9.97;;;5.83;;
34565;SDS011;20803;42.676;26.348;2023-12-20T14:10:28;8.20;;;5.33;;
34565;SDS011;20803;42.676;26.348;2023-12-20T14:12:54;9.67;;;6.43;;
34565;SDS011;20803;42.676;26.348;2023-12-20T14:15:20;9.80;;;5.70;;
34565;SDS011;20803;42.676;26.348;2023-12-20T14:17:45;11.13;;;6.23;;